Time;durP1;ratioP1;P1;durP2;ratioP2;P2;SDS_P1;SDS_P2;PMS_P1;PMS_P2;Temp;Humidity;BMP_temperature;BMP_pressure;BME280_temperature;BME280_humidity;BME280_pressure;Samples;Min_cycle;Max_cycle;Signal;HPM_P1;HPM_P2
2023/04/10 00:00:44;;;;;;;13.93;9.35;;;6.60;58.20;;;;;;5075510;28;20028;-74
2023/04/10 00:03:10;;;;;;;12.52;8.98;;;6.60;58.30;;;;;;5075356;28;20476;-78
2023/04/10 00:05:35;;;;;;;12.98;9.45;;;6.60;58.20;;;;;;5075353;28;20039;-77
2023/04/10 00:08:02;;;;;;;12.63;9.65;;;6.60;58.30;;;;;;5075699;28;20017;-78
2023/04/10 00:10:30;;;;;;;12.88;9.45;;;6.50;59.00;;;;;;5075564;28;20028;-78
2023/04/10 00:12:56;;;;;;;12.55;9.02;;;6.50;58.40;;;;;;5075148;28;20040;-78
2023/04/10 00:15:22;;;;;;;11.20;8.75;;;6.50;58.40;;;;;;5075320;28;20025;-77
2023/04/10 00:17:49;;;;;;;12.57;9.10;;;6.40;58.70;;;;;;5075338;28;20059;-74
2023/04/10 00:20:16;;;;;;;11.95;8.57;;;6.40;58.70;;;;;;5075110;28;20151;-78
2023/04/10 00:22:41;;;;;;;12.85;9.32;;;6.40;58.70;;;;;;5075005;28;20031;-78
2023/04/10 00:25:07;;;;;;;11.00;8.57;;;6.40;58.70;;;;;;5075271;28;20032;-78
2023/04/10 00:27:33;;;;;;;11.30;8.50;;;6.30;59.10;;;;;;5058265;28;20037;-75
2023/04/10 00:29:59;;;;;;;12.25;9.07;;;6.30;59.00;;;;;;5075006;28;20028;-79
2023/04/10 00:32:25;;;;;;;14.23;8.90;;;6.40;59.00;;;;;;5075227;28;20112;-77
2023/04/10 00:34:50;;;;;;;11.52;8.85;;;6.30;58.80;;;;;;5074759;28;20507;-79
2023/04/10 00:37:16;;;;;;;13.05;9.35;;;6.20;59.20;;;;;;5074923;28;20066;-79
2023/04/10 00:39:41;;;;;;;12.68;9.10;;;6.20;59.40;;;;;;5074829;28;20469;-78
2023/04/10 00:42:08;;;;;;;14.48;10.00;;;6.20;59.40;;;;;;5075031;28;20452;-78
2023/04/10 00:44:36;;;;;;;15.23;9.43;;;6.10;59.70;;;;;;5075023;28;20421;-74
2023/04/10 00:47:03;;;;;;;11.32;8.77;;;6.00;59.60;;;;;;5074910;28;20394;-74
2023/04/10 00:49:30;;;;;;;12.73;9.10;;;6.00;59.80;;;;;;5074830;28;20063;-75
2023/04/10 00:51:55;;;;;;;12.57;9.02;;;6.00;59.60;;;;;;5074519;28;20388;-75
2023/04/10 00:54:22;;;;;;;12.68;9.13;;;6.00;59.80;;;;;;5074589;28;20016;-74
2023/04/10 00:56:49;;;;;;;10.88;8.52;;;6.00;59.80;;;;;;5074601;28;20031;-73
2023/04/10 00:59:15;;;;;;;12.30;9.05;;;6.00;59.60;;;;;;5074615;28;20048;-73
2023/04/10 01:01:41;;;;;;;11.93;9.20;;;6.00;59.70;;;;;;5074648;28;20119;-73
2023/04/10 01:04:07;;;;;;;10.25;8.15;;;6.00;59.40;;;;;;5074449;28;20036;-75
2023/04/10 01:07:03;;;;;;;10.93;8.32;;;5.90;59.40;;;;;;5074361;28;20065;-77
2023/04/10 01:09:38;;;;;;;12.05;9.23;;;6.00;58.90;;;;;;5074501;28;20067;-76
2023/04/10 01:12:14;;;;;;;13.70;9.00;;;5.90;59.20;;;;;;5074096;28;20025;-76
2023/04/10 01:15:00;;;;;;;12.40;9.23;;;5.90;59.50;;;;;;5074035;28;20064;-78
2023/04/10 01:17:38;;;;;;;10.88;7.57;;;5.90;59.50;;;;;;5074029;28;20056;-77
2023/04/10 01:20:07;;;;;;;10.95;8.52;;;5.80;59.80;;;;;;5074196;28;20109;-75
2023/04/10 01:22:54;;;;;;;11.70;8.95;;;5.70;59.90;;;;;;5074244;28;20156;-76
2023/04/10 01:25:28;;;;;;;12.75;8.50;;;5.80;59.70;;;;;;5073206;28;20041;-73
2023/04/10 01:28:04;;;;;;;12.45;9.05;;;5.70;59.80;;;;;;5073943;28;20024;-74
2023/04/10 01:30:30;;;;;;;;;;;5.70;59.90;;;;;;5073800;28;20037;-74
2023/04/10 01:32:59;;;;;;;12.35;8.75;;;5.70;59.80;;;;;;5074007;28;19923;-73
2023/04/10 01:35:27;;;;;;;10.18;8.18;;;5.70;59.90;;;;;;5073904;28;20040;-74
2023/04/10 01:37:55;;;;;;;12.40;9.02;;;5.70;59.80;;;;;;5074014;28;20021;-74
2023/04/10 01:40:24;;;;;;;11.52;8.77;;;5.70;59.90;;;;;;5073483;28;20066;-72
2023/04/10 01:42:54;;;;;;;11.27;8.45;;;5.60;59.70;;;;;;5073683;28;20040;-73
2023/04/10 01:45:23;;;;;;;14.02;9.32;;;5.60;59.80;;;;;;5073467;28;20472;-74
2023/04/10 01:47:50;;;;;;;12.63;9.27;;;5.60;59.80;;;;;;5073404;28;20056;-73
2023/04/10 01:50:16;;;;;;;12.85;9.43;;;5.60;60.00;;;;;;5073291;28;20024;-72
2023/04/10 01:52:43;;;;;;;12.80;9.15;;;5.50;60.00;;;;;;5073524;28;20028;-74
2023/04/10 01:55:09;;;;;;;12.50;9.02;;;5.40;60.10;;;;;;5073525;28;20054;-74
2023/04/10 01:57:37;;;;;;;12.30;9.20;;;5.40;60.50;;;;;;5073590;28;20398;-72
2023/04/10 02:00:03;;;;;;;12.15;9.02;;;5.30;61.00;;;;;;5073472;28;20021;-72
2023/04/10 02:02:32;;;;;;;13.90;9.50;;;5.30;61.10;;;;;;5073228;28;20477;-72
2023/04/10 02:04:58;;;;;;;11.15;8.32;;;5.20;61.20;;;;;;5072930;28;20404;-73
2023/04/10 02:07:28;;;;;;;12.27;8.95;;;5.20;61.20;;;;;;5072932;28;20135;-72
2023/04/10 02:10:06;;;;;;;14.27;10.30;;;5.20;61.30;;;;;;5073202;28;20472;-73
2023/04/10 02:12:37;;;;;;;12.60;9.27;;;5.10;61.50;;;;;;5073056;28;20468;-72
2023/04/10 02:15:07;;;;;;;11.90;8.98;;;5.10;61.80;;;;;;5072782;28;20031;-73
2023/04/10 02:17:35;;;;;;;12.05;9.07;;;5.10;61.60;;;;;;5072219;28;20593;-73
2023/04/10 02:20:01;;;;;;;12.52;8.63;;;5.10;61.20;;;;;;5072592;28;20095;-74
2023/04/10 02:22:27;;;;;;;12.52;9.07;;;5.20;60.80;;;;;;5073141;28;20063;-71
2023/04/10 02:24:53;;;;;;;12.20;9.18;;;5.20;60.70;;;;;;5072869;28;20035;-73
2023/04/10 02:27:33;;;;;;;12.98;8.65;;;5.20;60.70;;;;;;5072837;28;20028;-74
2023/04/10 02:29:59;;;;;;;12.00;8.50;;;5.20;60.50;;;;;;5072401;28;20115;-73
2023/04/10 02:32:26;;;;;;;10.73;7.65;;;5.20;60.40;;;;;;5072393;28;20025;-72
2023/04/10 02:34:51;;;;;;;12.57;9.10;;;5.10;60.50;;;;;;5072268;28;20405;-72
2023/04/10 02:37:17;;;;;;;11.75;8.63;;;5.10;60.70;;;;;;5072693;28;20047;-72
2023/04/10 02:39:42;;;;;;;11.65;8.40;;;5.10;60.50;;;;;;5072555;28;20027;-74
2023/04/10 02:42:08;;;;;;;11.60;8.32;;;5.10;60.40;;;;;;5072417;28;20028;-73
2023/04/10 02:44:34;;;;;;;12.55;8.20;;;5.10;60.30;;;;;;5072174;28;20503;-75
2023/04/10 02:46:59;;;;;;;10.55;7.82;;;5.10;60.40;;;;;;5072233;28;20115;-73
2023/04/10 02:49:26;;;;;;;14.00;8.27;;;5.20;60.30;;;;;;5072231;28;20123;-73
2023/04/10 02:51:51;;;;;;;9.48;7.40;;;5.20;59.80;;;;;;5072395;28;20499;-73
2023/04/10 02:54:17;;;;;;;10.23;7.68;;;5.30;59.70;;;;;;5072331;28;20025;-73
2023/04/10 02:56:42;;;;;;;11.15;7.50;;;5.30;59.30;;;;;;5072388;28;20077;-77
2023/04/10 02:59:08;;;;;;;9.57;7.28;;;5.40;59.30;;;;;;5072220;28;20043;-76
2023/04/10 03:01:33;;;;;;;11.85;8.30;;;5.40;59.10;;;;;;5055564;28;20067;-76
2023/04/10 03:03:59;;;;;;;9.65;7.07;;;5.40;58.90;;;;;;5072356;28;20068;-77
2023/04/10 03:06:26;;;;;;;9.38;7.65;;;5.50;58.60;;;;;;5072421;28;20372;-77
2023/04/10 03:08:52;;;;;;;9.07;6.68;;;5.50;58.30;;;;;;5072279;28;20039;-77
2023/04/10 03:11:17;;;;;;;10.02;7.38;;;5.50;57.90;;;;;;5072726;28;20154;-77
2023/04/10 03:13:43;;;;;;;10.05;6.95;;;5.60;57.50;;;;;;5072334;28;20048;-73
2023/04/10 03:16:08;;;;;;;8.80;6.68;;;5.60;57.30;;;;;;5071930;28;20047;-73
2023/04/10 03:18:34;;;;;;;12.68;8.43;;;5.60;57.40;;;;;;5072259;28;20531;-73
2023/04/10 03:21:01;;;;;;;13.23;9.57;;;5.60;57.70;;;;;;5072372;28;20101;-73
2023/04/10 03:23:27;;;;;;;12.38;8.52;;;5.50;57.80;;;;;;5072120;28;20021;-73
2023/04/10 03:25:53;;;;;;;11.15;8.23;;;5.50;57.90;;;;;;5072019;28;20472;-73
2023/04/10 03:28:21;;;;;;;10.20;7.50;;;5.50;58.10;;;;;;5072053;28;20104;-74
2023/04/10 03:30:48;;;;;;;8.75;6.60;;;5.50;58.20;;;;;;5071811;28;20059;-75
2023/04/10 03:33:14;;;;;;;10.10;7.18;;;5.50;58.30;;;;;;5083243;28;20028;-74
2023/04/10 03:35:40;;;;;;;10.05;6.90;;;5.50;58.20;;;;;;5090194;28;20032;-73
2023/04/10 03:38:05;;;;;;;10.75;6.70;;;5.40;58.20;;;;;;5090851;28;20021;-75
2023/04/10 03:40:33;;;;;;;8.82;6.47;;;5.40;58.30;;;;;;5087659;28;20025;-72
2023/04/10 03:42:59;;;;;;;9.52;6.78;;;5.40;58.40;;;;;;5090422;28;20033;-75
2023/04/10 03:45:24;;;;;;;9.48;7.20;;;5.40;58.60;;;;;;5078413;28;20042;-77
2023/04/10 03:47:51;;;;;;;10.15;7.43;;;5.30;58.80;;;;;;5072058;28;20031;-77
2023/04/10 03:50:17;;;;;;;8.73;6.53;;;5.20;58.90;;;;;;5072273;28;20370;-77
2023/04/10 03:52:42;;;;;;;7.75;5.97;;;5.20;59.40;;;;;;5071649;28;20021;-76
2023/04/10 03:55:08;;;;;;;9.52;6.63;;;5.10;59.60;;;;;;5071858;28;20025;-76
2023/04/10 03:57:33;;;;;;;9.50;6.70;;;5.00;59.60;;;;;;5072259;28;20353;-77
2023/04/10 03:59:59;;;;;;;8.23;6.55;;;5.00;59.90;;;;;;5072131;28;20029;-77
2023/04/10 04:02:25;;;;;;;8.93;6.53;;;5.00;60.20;;;;;;5072095;28;20024;-77
2023/04/10 04:04:51;;;;;;;8.40;6.32;;;5.00;60.30;;;;;;5071728;28;20033;-77
2023/04/10 04:07:17;;;;;;;9.27;7.38;;;5.00;60.40;;;;;;5071361;28;20377;-75
2023/04/10 04:09:42;;;;;;;8.85;6.85;;;5.00;60.30;;;;;;5071664;28;20025;-75
2023/04/10 04:12:09;;;;;;;9.93;7.57;;;5.00;60.20;;;;;;5071788;28;20021;-76
2023/04/10 04:14:35;;;;;;;10.57;7.95;;;4.80;60.20;;;;;;5071245;28;20032;-72
2023/04/10 04:17:01;;;;;;;9.68;7.22;;;4.70;60.20;;;;;;5071452;28;20024;-72
2023/04/10 04:19:26;;;;;;;12.15;7.03;;;4.70;60.40;;;;;;5071546;28;20020;-72
2023/04/10 04:21:52;;;;;;;9.40;6.60;;;4.70;60.50;;;;;;5071423;28;20095;-73
2023/04/10 04:24:17;;;;;;;9.45;6.60;;;4.70;60.50;;;;;;5071036;28;20124;-72
2023/04/10 04:26:43;;;;;;;7.85;6.35;;;4.70;60.20;;;;;;5071215;28;20112;-72
2023/04/10 04:29:08;;;;;;;8.05;6.07;;;4.80;59.20;;;;;;5071190;28;20059;-72
2023/04/10 04:31:34;;;;;;;7.18;5.57;;;4.80;59.00;;;;;;5071405;28;20021;-72
2023/04/10 04:34:00;;;;;;;8.80;6.47;;;4.80;59.00;;;;;;5071278;28;20056;-73
2023/04/10 04:36:27;;;;;;;7.82;6.05;;;4.90;58.80;;;;;;5071202;28;20032;-73
2023/04/10 04:38:53;;;;;;;7.45;5.55;;;5.00;58.60;;;;;;5071007;28;20439;-73
2023/04/10 04:41:18;;;;;;;8.02;5.57;;;5.00;58.20;;;;;;5071700;28;20028;-73
2023/04/10 04:43:46;;;;;;;8.85;5.97;;;5.10;58.30;;;;;;5074832;28;20025;-73
2023/04/10 04:46:12;;;;;;;8.52;6.13;;;5.10;58.30;;;;;;5074824;28;20063;-73
2023/04/10 04:48:37;;;;;;;7.82;6.15;;;5.20;57.90;;;;;;5074702;28;20021;-73
2023/04/10 04:51:05;;;;;;;8.07;6.00;;;5.20;57.70;;;;;;5074864;28;20036;-73
2023/04/10 04:53:31;;;;;;;7.32;6.10;;;5.20;57.60;;;;;;5074469;28;20025;-73
2023/04/10 04:55:56;;;;;;;8.82;6.28;;;5.30;57.60;;;;;;5074453;28;20024;-73
2023/04/10 04:58:23;;;;;;;8.23;6.10;;;5.30;57.20;;;;;;5074753;28;20028;-73
2023/04/10 05:00:50;;;;;;;8.75;6.55;;;5.30;56.70;;;;;;5074514;28;20107;-74
2023/04/10 05:03:16;;;;;;;9.13;6.10;;;5.30;56.60;;;;;;5074673;28;20031;-73
2023/04/10 05:05:42;;;;;;;7.78;5.50;;;5.40;56.80;;;;;;5074465;28;20040;-73
2023/04/10 05:08:07;;;;;;;7.28;5.72;;;5.40;56.60;;;;;;5074387;28;20119;-73
2023/04/10 05:10:33;;;;;;;7.82;6.30;;;5.50;56.40;;;;;;5075353;28;20496;-73
2023/04/10 05:12:58;;;;;;;7.55;5.50;;;5.50;56.50;;;;;;5080401;28;20032;-73
2023/04/10 05:15:24;;;;;;;7.03;5.70;;;5.60;56.40;;;;;;5076761;28;20066;-74
2023/04/10 05:17:52;;;;;;;8.02;5.80;;;5.60;55.80;;;;;;5074789;28;20085;-73
2023/04/10 05:20:18;;;;;;;7.93;6.15;;;5.70;55.70;;;;;;5075089;28;20040;-74
2023/04/10 05:22:44;;;;;;;7.95;5.35;;;5.80;55.80;;;;;;5075268;28;20029;-74
2023/04/10 05:25:10;;;;;;;6.82;5.47;;;5.80;55.60;;;;;;5075163;28;20067;-73
2023/04/10 05:27:35;;;;;;;6.80;5.60;;;5.90;55.10;;;;;;5075183;28;20021;-73
2023/04/10 05:30:02;;;;;;;8.00;5.78;;;5.90;55.00;;;;;;5073806;28;20032;-73
2023/04/10 05:32:27;;;;;;;7.35;5.10;;;6.10;54.80;;;;;;5075065;28;20017;-73
2023/04/10 05:34:53;;;;;;;8.05;6.03;;;6.10;54.70;;;;;;5074713;28;20079;-72
2023/04/10 05:37:18;;;;;;;8.32;5.53;;;6.20;54.30;;;;;;5075052;28;20031;-72
2023/04/10 05:39:44;;;;;;;7.63;5.60;;;6.30;54.10;;;;;;5074879;28;20036;-73
2023/04/10 05:42:10;;;;;;;7.03;5.28;;;6.30;53.90;;;;;;5074992;28;20537;-73
2023/04/10 05:44:36;;;;;;;8.23;5.30;;;6.40;53.70;;;;;;5074642;28;20127;-73
2023/04/10 05:47:01;;;;;;;6.95;5.55;;;6.50;53.70;;;;;;5074447;28;20023;-73
2023/04/10 05:49:27;;;;;;;11.25;7.40;;;6.60;53.50;;;;;;5074675;28;20100;-74
2023/04/10 05:51:52;;;;;;;7.55;5.70;;;6.70;53.20;;;;;;5073459;28;20032;-74
2023/04/10 05:54:18;;;;;;;9.57;6.50;;;6.80;52.90;;;;;;5074605;28;20112;-72
2023/04/10 05:56:44;;;;;;;7.63;5.80;;;6.90;52.50;;;;;;5074576;28;20058;-73
2023/04/10 05:59:11;;;;;;;5.93;4.75;;;7.00;52.30;;;;;;5074525;28;20025;-73
2023/04/10 06:01:36;;;;;;;6.40;4.60;;;7.10;52.20;;;;;;5074613;28;20460;-73
2023/04/10 06:04:02;;;;;;;5.65;4.43;;;7.20;52.10;;;;;;5074328;28;20028;-73
2023/04/10 06:06:28;;;;;;;6.03;4.90;;;7.30;52.10;;;;;;5074275;28;20017;-73
2023/04/10 06:08:54;;;;;;;7.35;5.95;;;7.40;51.80;;;;;;5074088;28;20112;-73
2023/04/10 06:11:20;;;;;;;13.18;9.40;;;7.40;52.30;;;;;;5074257;28;20481;-74
2023/04/10 06:13:46;;;;;;;9.55;6.25;;;7.40;51.60;;;;;;5074231;28;20027;-73
2023/04/10 06:16:13;;;;;;;6.22;4.80;;;7.50;52.20;;;;;;5074326;28;20396;-73
2023/04/10 06:18:40;;;;;;;6.80;4.68;;;7.40;51.10;;;;;;5074087;28;20417;-72
2023/04/10 06:21:06;;;;;;;5.57;4.18;;;7.40;49.10;;;;;;5073893;28;20052;-73
2023/04/10 06:23:31;;;;;;;6.85;3.80;;;7.40;48.30;;;;;;5073659;28;20059;-73
2023/04/10 06:25:57;;;;;;;5.22;4.13;;;7.50;48.00;;;;;;5073752;28;20357;-73
2023/04/10 06:28:22;;;;;;;5.57;4.03;;;7.60;48.10;;;;;;5073526;28;20103;-73
2023/04/10 06:30:48;;;;;;;7.40;4.30;;;7.70;47.60;;;;;;5073541;28;20035;-73
2023/04/10 06:33:15;;;;;;;5.85;3.88;;;7.80;47.30;;;;;;5073553;28;20028;-73
2023/04/10 06:35:41;;;;;;;4.57;3.97;;;7.80;47.70;;;;;;5073638;28;20024;-73
2023/04/10 06:38:07;;;;;;;5.22;4.13;;;7.90;48.00;;;;;;5073424;28;20476;-73
2023/04/10 06:40:33;;;;;;;4.88;3.90;;;7.90;48.10;;;;;;5073481;28;20025;-74
2023/04/10 06:42:59;;;;;;;5.32;4.00;;;7.90;47.70;;;;;;5076367;28;20429;-73
2023/04/10 06:45:25;;;;;;;5.15;4.28;;;7.90;47.30;;;;;;5073341;28;20507;-73
2023/04/10 06:47:51;;;;;;;6.22;4.47;;;8.00;47.00;;;;;;5072140;28;20056;-73
2023/04/10 06:50:16;;;;;;;4.85;3.83;;;8.10;46.10;;;;;;5073437;28;20032;-73
2023/04/10 06:52:43;;;;;;;4.65;3.90;;;8.10;46.30;;;;;;5073245;28;20464;-73
2023/04/10 06:55:09;;;;;;;4.75;3.78;;;8.20;45.70;;;;;;5073445;28;20058;-73
2023/04/10 06:57:35;;;;;;;4.72;4.00;;;8.30;46.00;;;;;;5073247;28;20108;-73
2023/04/10 07:00:00;;;;;;;5.57;4.15;;;8.40;45.70;;;;;;5073315;28;20031;-73
2023/04/10 07:02:26;;;;;;;4.40;3.63;;;8.50;45.60;;;;;;5073135;28;20028;-73
2023/04/10 07:04:52;;;;;;;4.30;3.33;;;8.60;45.10;;;;;;5072729;28;20041;-74
2023/04/10 07:07:18;;;;;;;5.13;3.75;;;8.70;45.30;;;;;;5072974;28;20013;-74
2023/04/10 07:09:43;;;;;;;4.15;3.42;;;8.70;45.00;;;;;;5073133;28;20356;-73
2023/04/10 07:12:09;;;;;;;4.95;3.15;;;8.80;44.90;;;;;;5073043;28;20044;-77
2023/04/10 07:14:35;;;;;;;4.65;3.60;;;9.00;44.90;;;;;;5073172;28;20024;-77
2023/04/10 07:17:01;;;;;;;5.72;4.30;;;9.00;44.80;;;;;;5073333;28;20103;-73
2023/04/10 07:19:26;;;;;;;4.78;3.70;;;9.10;45.00;;;;;;5071621;28;20033;-73
2023/04/10 07:21:52;;;;;;;4.72;3.50;;;9.30;45.60;;;;;;5071921;28;20469;-77
2023/04/10 07:24:18;;;;;;;5.30;3.40;;;9.40;44.70;;;;;;5073062;28;20476;-77
2023/04/10 07:26:45;;;;;;;4.32;3.33;;;9.50;45.20;;;;;;5071994;28;20056;-77
2023/04/10 07:29:11;;;;;;;4.38;3.30;;;9.60;44.80;;;;;;5073151;28;20110;-79
2023/04/10 07:31:36;;;;;;;9.57;3.85;;;9.70;45.20;;;;;;5071985;28;20496;-77
2023/04/10 07:34:02;;;;;;;12.25;2.90;;;9.90;52.70;;;;;;5071381;28;20127;-78
2023/04/10 07:36:28;;;;;;;4.90;3.10;;;10.10;52.20;;;;;;5071748;28;20032;-77
2023/04/10 07:38:55;;;;;;;3.15;2.40;;;10.50;49.10;;;;;;5072942;28;20016;-74
2023/04/10 07:41:21;;;;;;;3.38;2.97;;;10.90;47.90;;;;;;5073124;28;20032;-73
2023/04/10 07:43:46;;;;;;;4.45;2.78;;;11.40;47.40;;;;;;5071601;28;20032;-75
2023/04/10 07:46:12;;;;;;;3.45;3.13;;;11.80;45.60;;;;;;5073022;28;20047;-76
2023/04/10 07:48:38;;;;;;;4.65;2.70;;;12.10;42.90;;;;;;5072940;28;20043;-75
2023/04/10 07:51:08;;;;;;;3.33;2.97;;;12.30;42.70;;;;;;5071844;28;20033;-76
2023/04/10 07:53:33;;;;;;;3.67;2.78;;;12.50;41.10;;;;;;5055651;28;20024;-76
2023/04/10 07:55:59;;;;;;;3.63;2.70;;;12.60;39.60;;;;;;5072805;28;20502;-74
2023/04/10 07:58:25;;;;;;;3.00;2.55;;;12.70;41.40;;;;;;5072725;28;20427;-74
2023/04/10 08:00:50;;;;;;;3.38;2.88;;;12.80;39.30;;;;;;5071383;28;20016;-74
2023/04/10 08:03:16;;;;;;;3.50;3.10;;;12.90;40.00;;;;;;5072881;28;20029;-74
2023/04/10 08:05:42;;;;;;;2.63;2.38;;;12.90;39.10;;;;;;5075026;28;20131;-79
2023/04/10 08:08:07;;;;;;;3.17;2.65;;;13.00;38.60;;;;;;5072600;28;20025;-76
2023/04/10 08:10:36;;;;;;;2.53;2.20;;;13.00;37.50;;;;;;5071630;28;20073;-78
2023/04/10 08:13:02;;;;;;;2.58;2.03;;;12.90;38.30;;;;;;5072553;28;20372;-77
2023/04/10 08:15:28;;;;;;;3.20;2.33;;;12.70;37.90;;;;;;5054449;28;20029;-76
2023/04/10 08:17:53;;;;;;;2.80;1.80;;;12.60;37.50;;;;;;5074057;28;20016;-77
2023/04/10 08:20:20;;;;;;;2.15;1.92;;;12.50;37.30;;;;;;5075221;28;20039;-77
2023/04/10 08:22:46;;;;;;;2.10;1.90;;;12.40;37.00;;;;;;5076302;28;20016;-76
2023/04/10 08:25:12;;;;;;;3.60;2.17;;;12.40;36.90;;;;;;5075104;28;20485;-75
2023/04/10 08:27:38;;;;;;;2.80;2.03;;;12.20;36.30;;;;;;5075137;28;20025;-75
2023/04/10 08:30:04;;;;;;;2.40;1.77;;;12.30;36.60;;;;;;5074907;28;20090;-74
2023/04/10 08:32:29;;;;;;;2.40;1.98;;;12.30;36.50;;;;;;5074755;28;20028;-75
2023/04/10 08:34:55;;;;;;;2.97;1.88;;;12.40;36.20;;;;;;5074799;28;20128;-75
2023/04/10 08:37:23;;;;;;;1.85;1.65;;;12.50;35.70;;;;;;5075209;28;20047;-75
2023/04/10 08:39:48;;;;;;;3.22;1.80;;;12.50;34.90;;;;;;5074758;28;20028;-75
2023/04/10 08:42:14;;;;;;;1.95;1.70;;;12.60;34.30;;;;;;5074623;28;20357;-74
2023/04/10 08:44:40;;;;;;;1.90;1.50;;;12.70;34.10;;;;;;5058046;28;20032;-76
2023/04/10 08:47:09;;;;;;;2.67;1.30;;;12.70;34.90;;;;;;5074641;28;20047;-76
2023/04/10 08:49:52;;;;;;;2.35;1.80;;;12.90;35.10;;;;;;5074684;28;20024;-76
2023/04/10 08:52:22;;;;;;;2.10;1.60;;;12.90;32.70;;;;;;5077347;28;20484;-76
2023/04/10 08:54:54;;;;;;;2.40;1.77;;;12.90;33.00;;;;;;5085066;28;20012;-74
2023/04/10 08:57:20;;;;;;;2.35;1.80;;;13.00;33.30;;;;;;5084799;28;20020;-77
2023/04/10 08:59:46;;;;;;;2.22;1.65;;;13.10;33.90;;;;;;5076883;28;20499;-80
2023/04/10 09:02:12;;;;;;;1.52;1.40;;;13.20;34.10;;;;;;5074154;28;20039;-78
2023/04/10 09:04:37;;;;;;;1.92;1.40;;;13.30;34.10;;;;;;5077649;28;20040;-78
2023/04/10 09:07:04;;;;;;;1.42;1.33;;;13.40;33.10;;;;;;5084552;28;20584;-78
2023/04/10 09:09:31;;;;;;;1.50;1.40;;;13.50;32.70;;;;;;5083382;28;20507;-78
2023/04/10 09:11:59;;;;;;;2.30;1.65;;;13.70;33.10;;;;;;5081423;28;20019;-78
2023/04/10 09:14:28;;;;;;;1.73;1.30;;;13.70;31.40;;;;;;5084091;28;20013;-76
2023/04/10 09:17:08;;;;;;;1.98;1.40;;;13.70;31.40;;;;;;5082886;28;20028;-76
2023/04/10 09:19:34;;;;;;;1.40;1.30;;;13.80;30.60;;;;;;5081144;28;20062;-75
2023/04/10 09:22:04;;;;;;;1.92;1.50;;;13.80;30.70;;;;;;5082412;28;20028;-73
2023/04/10 09:24:30;;;;;;;1.40;1.30;;;14.00;31.30;;;;;;5083138;28;20502;-75
2023/04/10 09:26:56;;;;;;;1.77;1.30;;;14.20;30.40;;;;;;5084419;28;20082;-75
2023/04/10 09:29:21;;;;;;;1.40;1.30;;;14.40;30.00;;;;;;5088916;28;20025;-76
2023/04/10 09:31:49;;;;;;;0.93;0.93;;;14.60;29.80;;;;;;5081878;28;20052;-76
2023/04/10 09:34:22;;;;;;;1.25;1.15;;;14.70;27.70;;;;;;5082623;28;20551;-78
2023/04/10 09:36:56;;;;;;;1.25;0.90;;;14.70;27.60;;;;;;5082227;28;20056;-76
2023/04/10 09:39:35;;;;;;;0.93;0.90;;;14.80;26.30;;;;;;5081305;28;20020;-77
2023/04/10 09:42:01;;;;;;;1.27;1.17;;;14.90;25.40;;;;;;5078609;28;20074;-78
2023/04/10 09:44:32;;;;;;;2.20;1.30;;;14.90;25.50;;;;;;5081168;28;20415;-76
2023/04/10 09:47:13;;;;;;;2.70;0.77;;;14.90;24.50;;;;;;5082568;28;20028;-76
2023/04/10 09:49:53;;;;;;;1.20;1.00;;;14.90;25.20;;;;;;5082854;28;20028;-76
2023/04/10 09:52:25;;;;;;;0.80;0.80;;;15.00;24.00;;;;;;5081210;28;20046;-77
2023/04/10 09:54:54;;;;;;;1.05;0.90;;;15.10;25.20;;;;;;5081847;28;20020;-79
2023/04/10 09:57:21;;;;;;;1.55;0.90;;;15.20;23.90;;;;;;5083404;28;20020;-76
2023/04/10 09:59:56;;;;;;;1.00;0.90;;;15.40;23.10;;;;;;5083290;28;20095;-78
2023/04/10 10:02:23;;;;;;;1.30;0.75;;;15.50;22.70;;;;;;5082648;28;20016;-78
2023/04/10 10:04:49;;;;;;;0.90;0.68;;;15.50;20.50;;;;;;5081141;28;20036;-78
2023/04/10 10:07:16;;;;;;;1.00;0.88;;;15.50;20.50;;;;;;5091060;28;20099;-80
2023/04/10 10:09:43;;;;;;;1.00;0.80;;;15.40;19.50;;;;;;5094370;28;20050;-77
2023/04/10 10:12:12;;;;;;;0.50;0.50;;;15.40;20.00;;;;;;5094103;28;20487;-79
2023/04/10 10:14:49;;;;;;;0.77;0.70;;;15.20;18.50;;;;;;5082944;28;20024;-75
2023/04/10 10:17:18;;;;;;;0.93;0.80;;;15.30;20.30;;;;;;5082869;28;20020;-80
2023/04/10 10:20:01;;;;;;;1.27;0.90;;;15.50;20.40;;;;;;5077604;28;20611;-79
2023/04/10 10:22:27;;;;;;;0.80;0.80;;;15.60;20.70;;;;;;5081721;28;20572;-77
2023/04/10 10:24:55;;;;;;;0.95;0.68;;;15.70;20.40;;;;;;5081153;28;20043;-81
2023/04/10 10:27:23;;;;;;;0.55;0.47;;;16.00;21.20;;;;;;5080347;28;20131;-83
2023/04/10 10:29:53;;;;;;;0.55;0.50;;;16.10;17.80;;;;;;5056599;28;20020;-79
2023/04/10 10:32:21;;;;;;;0.70;0.65;;;15.90;16.80;;;;;;5072724;28;20023;-82
2023/04/10 10:34:49;;;;;;;0.30;0.30;;;15.90;17.60;;;;;;5072396;28;20059;-76
2023/04/10 10:37:21;;;;;;;0.60;0.60;;;16.10;15.70;;;;;;5074974;28;20036;-79
2023/04/10 10:40:02;;;;;;;0.50;0.50;;;16.30;16.00;;;;;;5078623;28;20496;-80
2023/04/10 10:42:40;;;;;;;1.52;0.65;;;16.00;15.40;;;;;;5082235;28;20033;-80
2023/04/10 10:45:14;;;;;;;0.60;0.50;;;15.90;15.30;;;;;;5080255;28;20024;-75
2023/04/10 10:47:52;;;;;;;0.40;0.40;;;15.90;15.60;;;;;;5079801;28;20048;-78
2023/04/10 10:50:18;;;;;;;0.65;0.60;;;15.60;15.40;;;;;;5082502;28;20118;-76
2023/04/10 10:52:48;;;;;;;1.25;0.80;;;15.60;17.30;;;;;;5079285;28;20426;-75
2023/04/10 10:55:23;;;;;;;0.82;0.80;;;15.60;18.00;;;;;;5077061;28;20472;-77
2023/04/10 10:57:53;;;;;;;0.90;0.65;;;15.50;18.70;;;;;;5072372;28;20078;-76
2023/04/10 11:00:20;;;;;;;0.40;0.40;;;15.50;17.90;;;;;;5072125;28;20024;-76
2023/04/10 11:03:09;;;;;;;0.50;0.50;;;15.30;17.70;;;;;;5073150;28;20378;-76
2023/04/10 11:05:53;;;;;;;0.47;0.47;;;15.20;16.50;;;;;;5074847;28;20396;-76
2023/04/10 11:08:31;;;;;;;1.13;0.70;;;15.40;18.00;;;;;;5072511;28;20481;-76
2023/04/10 11:11:07;;;;;;;0.60;0.43;;;15.70;17.00;;;;;;5071333;28;20031;-75
2023/04/10 11:13:34;;;;;;;0.60;0.60;;;15.80;15.70;;;;;;5076992;28;20495;-76
2023/04/10 11:16:02;;;;;;;0.40;0.40;;;16.10;17.10;;;;;;5082378;28;20027;-78
2023/04/10 11:18:46;;;;;;;0.60;0.60;;;16.40;16.00;;;;;;5077468;28;20032;-77
2023/04/10 11:21:20;;;;;;;0.93;0.80;;;16.50;15.80;;;;;;5071675;28;20066;-77
2023/04/10 11:24:00;;;;;;;0.77;0.77;;;16.80;17.60;;;;;;5072063;28;20035;-79
2023/04/10 11:26:42;;;;;;;1.10;0.60;;;16.80;17.00;;;;;;5071798;28;20044;-80
2023/04/10 11:29:34;;;;;;;0.50;0.50;;;16.90;15.70;;;;;;5071927;28;20025;-80
2023/04/10 11:32:02;;;;;;;0.52;0.52;;;17.20;13.40;;;;;;5069019;28;20025;-79
2023/04/10 11:34:29;;;;;;;2.80;1.10;;;17.40;14.00;;;;;;5071490;28;20048;-79
2023/04/10 11:36:55;;;;;;;1.08;0.98;;;17.80;16.00;;;;;;5079866;28;20082;-77
2023/04/10 11:39:21;;;;;;;1.20;1.00;;;18.00;16.10;;;;;;5079722;28;20020;-78
2023/04/10 11:41:48;;;;;;;2.85;1.45;;;18.20;16.10;;;;;;5080758;28;20115;-78
2023/04/10 11:44:16;;;;;;;1.23;0.80;;;18.40;15.80;;;;;;5080855;28;20024;-78
2023/04/10 11:46:49;;;;;;;1.10;0.85;;;18.30;15.50;;;;;;5079154;28;20111;-78
2023/04/10 11:49:22;;;;;;;1.00;0.75;;;18.50;15.30;;;;;;5081087;28;20464;-78
2023/04/10 11:51:49;;;;;;;0.50;0.50;;;18.40;14.30;;;;;;5079380;28;20119;-77
2023/04/10 11:54:20;;;;;;;0.93;0.80;;;18.70;14.80;;;;;;5086669;28;20025;-78
2023/04/10 11:56:56;;;;;;;1.27;1.17;;;18.60;14.90;;;;;;5082849;28;20472;-77
2023/04/10 11:59:22;;;;;;;1.23;1.10;;;19.00;16.80;;;;;;5083624;28;20052;-77
2023/04/10 12:01:52;;;;;;;1.42;1.30;;;18.90;17.40;;;;;;5079915;28;20419;-77
2023/04/10 12:04:20;;;;;;;1.45;1.30;;;19.00;17.00;;;;;;5075609;28;20033;-78
2023/04/10 12:06:50;;;;;;;1.20;1.10;;;19.10;16.90;;;;;;5075389;28;20055;-77
2023/04/10 12:09:18;;;;;;;1.73;1.17;;;19.00;17.00;;;;;;5075414;28;20561;-78
2023/04/10 12:11:54;;;;;;;1.45;1.20;;;19.20;17.00;;;;;;5075567;28;20098;-81
2023/04/10 12:14:21;;;;;;;1.42;1.25;;;19.40;16.60;;;;;;5075409;28;20516;-77
2023/04/10 12:16:47;;;;;;;1.10;1.00;;;19.60;16.20;;;;;;5075415;28;20052;-77
2023/04/10 12:19:15;;;;;;;1.17;1.08;;;20.00;16.10;;;;;;5082658;28;20451;-79
2023/04/10 12:21:42;;;;;;;1.33;1.17;;;19.70;16.00;;;;;;5094086;28;20513;-78
2023/04/10 12:24:08;;;;;;;0.80;0.63;;;19.70;16.00;;;;;;5095235;28;20111;-77
2023/04/10 12:26:34;;;;;;;2.25;1.20;;;19.80;16.30;;;;;;5096582;28;20115;-77
2023/04/10 12:28:59;;;;;;;1.33;0.70;;;20.00;16.00;;;;;;5095216;28;20060;-76
2023/04/10 12:31:27;;;;;;;1.00;0.80;;;20.10;16.80;;;;;;5091697;28;20439;-77
2023/04/10 12:33:56;;;;;;;1.00;0.85;;;20.30;15.60;;;;;;5083668;28;20083;-77
2023/04/10 12:36:29;;;;;;;0.90;0.90;;;20.10;15.40;;;;;;5094582;28;20028;-80
2023/04/10 12:39:20;;;;;;;0.60;0.60;;;19.80;15.70;;;;;;5084905;28;20032;-77
2023/04/10 12:41:45;;;;;;;1.08;0.98;;;19.90;15.50;;;;;;5075053;28;20028;-77
2023/04/10 12:44:13;;;;;;;1.00;0.90;;;20.00;15.30;;;;;;5075001;28;20388;-77
2023/04/10 12:46:39;;;;;;;1.55;0.82;;;19.70;16.30;;;;;;5074356;28;20028;-78
2023/04/10 12:49:13;;;;;;;1.00;0.90;;;19.70;16.30;;;;;;5074389;28;20134;-77
2023/04/10 12:51:50;;;;;;;1.25;0.88;;;19.90;16.10;;;;;;5074832;28;20074;-77
2023/04/10 12:54:33;;;;;;;0.77;0.77;;;20.30;16.30;;;;;;5074149;28;20025;-77